sensor_id;sensor_type;location;lat;lon;timestamp;P1;durP1;ratioP1;P2;durP2;ratioP2
33912;SDS011;20200;52.084;5.224;2022-11-20T00:00:50;42.1;;;33.0;;
33912;SDS011;20200;52.084;5.224;2022-11-20T00:02:26;43.4;;;33.21;;
33912;SDS011;20200;52.084;5.224;2022-11-20T00:05:39;44.2;;;33.71;;
33912;SDS011;20200;52.084;5.224;2022-11-20T00:07:16;44.9;;;36.5;;
33912;SDS011;20200;52.084;5.224;2022-11-20T00:08:53;40.81;;;33.4;;
33912;SDS011;20200;52.084;5.224;2022-11-20T00:12:08;40.81;;;34.0;;
33912;SDS011;20200;52.084;5.224;2022-11-20T00:13:44;41.7;;;33.21;;
33912;SDS011;20200;52.084;5.224;2022-11-20T00:15:21;43.1;;;35.5;;
33912;SDS011;20200;52.084;5.224;2022-11-20T00:16:57;39.71;;;31.9;;
33912;SDS011;20200;52.084;5.224;2022-11-20T00:20:11;44.7;;;34.9;;
33912;SDS011;20200;52.084;5.224;2022-11-20T00:21:51;44.3;;;35.81;;
33912;SDS011;20200;52.084;5.224;2022-11-20T00:23:27;39.9;;;33.5;;
33912;SDS011;20200;52.084;5.224;2022-11-20T00:26:40;51.1;;;38.1;;
33912;SDS011;20200;52.084;5.224;2022-11-20T00:28:17;44.1;;;36.71;;
33912;SDS011;20200;52.084;5.224;2022-11-20T00:29:53;41.2;;;32.71;;
33912;SDS011;20200;52.084;5.224;2022-11-20T00:33:06;41.7;;;33.5;;
33912;SDS011;20200;52.084;5.224;2022-11-20T00:34:42;39.81;;;33.3;;
33912;SDS011;20200;52.084;5.224;2022-11-20T00:36:19;38.1;;;31.6;;
33912;SDS011;20200;52.084;5.224;2022-11-20T00:37:58;38.81;;;32.21;;
33912;SDS011;20200;52.084;5.224;2022-11-20T00:41:11;45.4;;;34.71;;
33912;SDS011;20200;52.084;5.224;2022-11-20T00:42:49;42.5;;;33.71;;
33912;SDS011;20200;52.084;5.224;2022-11-20T00:44:25;46.4;;;36.6;;
33912;SDS011;20200;52.084;5.224;2022-11-20T00:47:41;40.21;;;32.8;;
33912;SDS011;20200;52.084;5.224;2022-11-20T00:49:17;42.7;;;32.71;;
33912;SDS011;20200;52.084;5.224;2022-11-20T00:50:55;41.5;;;34.21;;
33912;SDS011;20200;52.084;5.224;2022-11-20T00:52:33;41.6;;;32.9;;
33912;SDS011;20200;52.084;5.224;2022-11-20T00:55:52;42.5;;;32.8;;
33912;SDS011;20200;52.084;5.224;2022-11-20T00:57:29;39.71;;;31.9;;
33912;SDS011;20200;52.084;5.224;2022-11-20T00:59:05;39.0;;;32.3;;
33912;SDS011;20200;52.084;5.224;2022-11-20T01:02:17;39.5;;;31.7;;
33912;SDS011;20200;52.084;5.224;2022-11-20T01:03:54;41.4;;;32.6;;
33912;SDS011;20200;52.084;5.224;2022-11-20T01:05:34;42.3;;;33.3;;
33912;SDS011;20200;52.084;5.224;2022-11-20T01:07:10;37.0;;;30.9;;
33912;SDS011;20200;52.084;5.224;2022-11-20T01:10:24;36.81;;;29.9;;
33912;SDS011;20200;52.084;5.224;2022-11-20T01:12:01;36.71;;;29.8;;
33912;SDS011;20200;52.084;5.224;2022-11-20T01:13:37;38.4;;;31.1;;
33912;SDS011;20200;52.084;5.224;2022-11-20T01:16:50;37.31;;;31.0;;
33912;SDS011;20200;52.084;5.224;2022-11-20T01:18:28;40.31;;;31.8;;
33912;SDS011;20200;52.084;5.224;2022-11-20T01:20:04;35.9;;;29.6;;
33912;SDS011;20200;52.084;5.224;2022-11-20T01:23:20;34.4;;;28.4;;
33912;SDS011;20200;52.084;5.224;2022-11-20T01:24:56;39.9;;;31.4;;
33912;SDS011;20200;52.084;5.224;2022-11-20T01:26:33;36.9;;;30.1;;
33912;SDS011;20200;52.084;5.224;2022-11-20T01:28:12;37.9;;;31.3;;
33912;SDS011;20200;52.084;5.224;2022-11-20T01:31:25;39.71;;;31.9;;
33912;SDS011;20200;52.084;5.224;2022-11-20T01:33:03;37.71;;;29.3;;
33912;SDS011;20200;52.084;5.224;2022-11-20T01:34:40;37.71;;;29.3;;
33912;SDS011;20200;52.084;5.224;2022-11-20T01:37:55;42.0;;;31.9;;
33912;SDS011;20200;52.084;5.224;2022-11-20T01:39:31;37.31;;;31.2;;
33912;SDS011;20200;52.084;5.224;2022-11-20T01:41:08;35.1;;;27.9;;
33912;SDS011;20200;52.084;5.224;2022-11-20T01:43:50;36.5;;;29.5;;
33912;SDS011;20200;52.084;5.224;2022-11-20T01:45:50;35.6;;;29.5;;
33912;SDS011;20200;52.084;5.224;2022-11-20T01:47:35;35.5;;;29.5;;
33912;SDS011;20200;52.084;5.224;2022-11-20T01:49:16;37.31;;;30.1;;
33912;SDS011;20200;52.084;5.224;2022-11-20T01:52:38;38.1;;;31.1;;
33912;SDS011;20200;52.084;5.224;2022-11-20T01:54:19;37.71;;;31.0;;
33912;SDS011;20200;52.084;5.224;2022-11-20T01:56:01;40.71;;;32.5;;
33912;SDS011;20200;52.084;5.224;2022-11-20T01:57:42;37.21;;;30.1;;
33912;SDS011;20200;52.084;5.224;2022-11-20T02:01:02;39.31;;;31.4;;
33912;SDS011;20200;52.084;5.224;2022-11-20T02:02:41;36.6;;;30.0;;
33912;SDS011;20200;52.084;5.224;2022-11-20T02:04:22;37.5;;;31.0;;
33912;SDS011;20200;52.084;5.224;2022-11-20T02:06:01;38.5;;;31.5;;
33912;SDS011;20200;52.084;5.224;2022-11-20T02:09:20;35.81;;;29.4;;
33912;SDS011;20200;52.084;5.224;2022-11-20T02:10:56;36.6;;;29.6;;
33912;SDS011;20200;52.084;5.224;2022-11-20T02:13:50;40.21;;;31.9;;
33912;SDS011;20200;52.084;5.224;2022-11-20T02:16:05;40.0;;;33.0;;
33912;SDS011;20200;52.084;5.224;2022-11-20T02:17:47;40.81;;;33.0;;
33912;SDS011;20200;52.084;5.224;2022-11-20T02:19:26;42.7;;;33.71;;
33912;SDS011;20200;52.084;5.224;2022-11-20T02:21:06;37.31;;;30.7;;
33912;SDS011;20200;52.084;5.224;2022-11-20T02:22:50;42.5;;;33.1;;
33912;SDS011;20200;52.084;5.224;2022-11-20T02:24:33;41.7;;;33.21;;
33912;SDS011;20200;52.084;5.224;2022-11-20T02:27:51;40.31;;;32.0;;
33912;SDS011;20200;52.084;5.224;2022-11-20T02:29:28;36.6;;;29.9;;
33912;SDS011;20200;52.084;5.224;2022-11-20T02:31:10;41.2;;;31.7;;
33912;SDS011;20200;52.084;5.224;2022-11-20T02:34:22;40.5;;;32.4;;
33912;SDS011;20200;52.084;5.224;2022-11-20T02:35:58;36.6;;;29.4;;
33912;SDS011;20200;52.084;5.224;2022-11-20T02:37:35;36.4;;;29.7;;
33912;SDS011;20200;52.084;5.224;2022-11-20T02:39:16;37.1;;;29.8;;
33912;SDS011;20200;52.084;5.224;2022-11-20T02:42:29;35.71;;;28.7;;
33912;SDS011;20200;52.084;5.224;2022-11-20T02:44:05;34.31;;;28.9;;
33912;SDS011;20200;52.084;5.224;2022-11-20T02:45:41;35.81;;;29.6;;
33912;SDS011;20200;52.084;5.224;2022-11-20T02:48:54;36.81;;;29.5;;
33912;SDS011;20200;52.084;5.224;2022-11-20T02:50:30;36.5;;;28.6;;
33912;SDS011;20200;52.084;5.224;2022-11-20T02:52:06;35.71;;;28.8;;
33912;SDS011;20200;52.084;5.224;2022-11-20T02:55:18;34.81;;;28.4;;
33912;SDS011;20200;52.084;5.224;2022-11-20T02:56:55;36.21;;;29.3;;
33912;SDS011;20200;52.084;5.224;2022-11-20T02:58:31;34.81;;;28.1;;
33912;SDS011;20200;52.084;5.224;2022-11-20T03:00:08;35.31;;;28.1;;
33912;SDS011;20200;52.084;5.224;2022-11-20T03:03:20;32.9;;;27.1;;
33912;SDS011;20200;52.084;5.224;2022-11-20T03:04:57;41.1;;;31.1;;
33912;SDS011;20200;52.084;5.224;2022-11-20T03:06:34;42.8;;;33.4;;
33912;SDS011;20200;52.084;5.224;2022-11-20T03:09:46;40.81;;;32.8;;
33912;SDS011;20200;52.084;5.224;2022-11-20T03:11:22;40.31;;;32.0;;
33912;SDS011;20200;52.084;5.224;2022-11-20T03:13:00;44.3;;;34.4;;
33912;SDS011;20200;52.084;5.224;2022-11-20T03:16:13;41.0;;;32.71;;
33912;SDS011;20200;52.084;5.224;2022-11-20T03:17:52;41.5;;;33.4;;
33912;SDS011;20200;52.084;5.224;2022-11-20T03:19:29;35.1;;;28.9;;
33912;SDS011;20200;52.084;5.224;2022-11-20T03:21:06;39.31;;;31.9;;
33912;SDS011;20200;52.084;5.224;2022-11-20T03:24:19;40.81;;;31.7;;
33912;SDS011;20200;52.084;5.224;2022-11-20T03:25:55;38.4;;;30.4;;
33912;SDS011;20200;52.084;5.224;2022-11-20T03:27:32;43.5;;;33.21;;
33912;SDS011;20200;52.084;5.224;2022-11-20T03:30:45;40.21;;;32.9;;
33912;SDS011;20200;52.084;5.224;2022-11-20T03:32:21;36.31;;;29.7;;
33912;SDS011;20200;52.084;5.224;2022-11-20T03:33:57;45.4;;;34.71;;
33912;SDS011;20200;52.084;5.224;2022-11-20T03:37:10;44.6;;;35.1;;
33912;SDS011;20200;52.084;5.224;2022-11-20T03:38:47;43.5;;;32.6;;
33912;SDS011;20200;52.084;5.224;2022-11-20T03:40:24;37.9;;;31.5;;
33912;SDS011;20200;52.084;5.224;2022-11-20T03:42:00;38.4;;;31.2;;
33912;SDS011;20200;52.084;5.224;2022-11-20T03:45:14;42.1;;;33.6;;
33912;SDS011;20200;52.084;5.224;2022-11-20T03:46:52;40.0;;;32.1;;
33912;SDS011;20200;52.084;5.224;2022-11-20T03:48:28;38.1;;;30.8;;
33912;SDS011;20200;52.084;5.224;2022-11-20T03:51:43;39.71;;;32.4;;
33912;SDS011;20200;52.084;5.224;2022-11-20T03:53:19;39.71;;;32.4;;
33912;SDS011;20200;52.084;5.224;2022-11-20T03:54:56;42.2;;;33.1;;
33912;SDS011;20200;52.084;5.224;2022-11-20T03:58:11;39.6;;;30.5;;
33912;SDS011;20200;52.084;5.224;2022-11-20T03:59:47;39.1;;;32.1;;
33912;SDS011;20200;52.084;5.224;2022-11-20T04:01:23;38.1;;;30.4;;
33912;SDS011;20200;52.084;5.224;2022-11-20T04:03:02;39.81;;;30.7;;
33912;SDS011;20200;52.084;5.224;2022-11-20T04:06:16;38.5;;;30.0;;
33912;SDS011;20200;52.084;5.224;2022-11-20T04:07:54;37.31;;;30.7;;
33912;SDS011;20200;52.084;5.224;2022-11-20T04:09:30;39.4;;;32.21;;
33912;SDS011;20200;52.084;5.224;2022-11-20T04:12:46;36.9;;;29.8;;
33912;SDS011;20200;52.084;5.224;2022-11-20T04:14:22;43.5;;;34.4;;
33912;SDS011;20200;52.084;5.224;2022-11-20T04:15:58;39.9;;;30.8;;
33912;SDS011;20200;52.084;5.224;2022-11-20T04:19:12;42.2;;;33.4;;
33912;SDS011;20200;52.084;5.224;2022-11-20T04:20:51;40.21;;;32.21;;
33912;SDS011;20200;52.084;5.224;2022-11-20T04:22:27;43.7;;;33.9;;
33912;SDS011;20200;52.084;5.224;2022-11-20T04:24:06;40.9;;;32.6;;
33912;SDS011;20200;52.084;5.224;2022-11-20T04:27:18;41.6;;;32.0;;
33912;SDS011;20200;52.084;5.224;2022-11-20T04:28:55;35.4;;;29.7;;
33912;SDS011;20200;52.084;5.224;2022-11-20T04:30:32;44.1;;;33.1;;
33912;SDS011;20200;52.084;5.224;2022-11-20T04:33:44;40.31;;;32.0;;
33912;SDS011;20200;52.084;5.224;2022-11-20T04:35:22;40.81;;;32.5;;
33912;SDS011;20200;52.084;5.224;2022-11-20T04:36:57;34.4;;;28.8;;
33912;SDS011;20200;52.084;5.224;2022-11-20T04:38:33;35.6;;;29.1;;
33912;SDS011;20200;52.084;5.224;2022-11-20T04:41:46;37.1;;;29.8;;
33912;SDS011;20200;52.084;5.224;2022-11-20T04:43:22;40.71;;;32.21;;
33912;SDS011;20200;52.084;5.224;2022-11-20T04:44:59;41.4;;;33.6;;
33912;SDS011;20200;52.084;5.224;2022-11-20T04:48:14;42.1;;;33.4;;
33912;SDS011;20200;52.084;5.224;2022-11-20T04:49:50;38.81;;;31.0;;
33912;SDS011;20200;52.084;5.224;2022-11-20T04:51:27;42.3;;;33.21;;
33912;SDS011;20200;52.084;5.224;2022-11-20T04:54:39;39.4;;;32.0;;
33912;SDS011;20200;52.084;5.224;2022-11-20T04:56:15;41.3;;;32.5;;
33912;SDS011;20200;52.084;5.224;2022-11-20T04:57:52;40.1;;;32.3;;
33912;SDS011;20200;52.084;5.224;2022-11-20T04:59:29;34.1;;;29.3;;
33912;SDS011;20200;52.084;5.224;2022-11-20T05:02:43;41.9;;;31.9;;
33912;SDS011;20200;52.084;5.224;2022-11-20T05:04:19;39.5;;;31.7;;
33912;SDS011;20200;52.084;5.224;2022-11-20T05:05:55;40.1;;;32.21;;
33912;SDS011;20200;52.084;5.224;2022-11-20T05:09:08;44.1;;;34.9;;
33912;SDS011;20200;52.084;5.224;2022-11-20T05:10:44;44.6;;;33.6;;
33912;SDS011;20200;52.084;5.224;2022-11-20T05:12:20;39.81;;;32.1;;
33912;SDS011;20200;52.084;5.224;2022-11-20T05:15:34;40.21;;;32.4;;
33912;SDS011;20200;52.084;5.224;2022-11-20T05:17:11;38.31;;;31.5;;
33912;SDS011;20200;52.084;5.224;2022-11-20T05:18:49;38.31;;;31.5;;
33912;SDS011;20200;52.084;5.224;2022-11-20T05:20:26;42.5;;;32.0;;
33912;SDS011;20200;52.084;5.224;2022-11-20T05:23:41;38.31;;;30.6;;
33912;SDS011;20200;52.084;5.224;2022-11-20T05:25:18;40.0;;;32.5;;
33912;SDS011;20200;52.084;5.224;2022-11-20T05:26:55;34.81;;;28.9;;
33912;SDS011;20200;52.084;5.224;2022-11-20T05:30:08;42.2;;;32.6;;
33912;SDS011;20200;52.084;5.224;2022-11-20T05:31:48;37.31;;;29.9;;
33912;SDS011;20200;52.084;5.224;2022-11-20T05:33:24;40.5;;;31.3;;
33912;SDS011;20200;52.084;5.224;2022-11-20T05:35:00;37.71;;;31.1;;
33912;SDS011;20200;52.084;5.224;2022-11-20T05:38:12;37.81;;;30.2;;
33912;SDS011;20200;52.084;5.224;2022-11-20T05:39:48;42.2;;;33.0;;
33912;SDS011;20200;52.084;5.224;2022-11-20T05:41:25;37.5;;;30.7;;
33912;SDS011;20200;52.084;5.224;2022-11-20T05:44:38;39.9;;;31.7;;
33912;SDS011;20200;52.084;5.224;2022-11-20T05:46:16;35.0;;;29.1;;
33912;SDS011;20200;52.084;5.224;2022-11-20T05:47:57;37.4;;;29.9;;
33912;SDS011;20200;52.084;5.224;2022-11-20T05:49:35;38.6;;;31.5;;
33912;SDS011;20200;52.084;5.224;2022-11-20T05:52:51;38.21;;;31.0;;
33912;SDS011;20200;52.084;5.224;2022-11-20T05:54:27;36.5;;;29.4;;
33912;SDS011;20200;52.084;5.224;2022-11-20T05:56:04;37.21;;;30.2;;
33912;SDS011;20200;52.084;5.224;2022-11-20T05:59:21;37.21;;;29.6;;
33912;SDS011;20200;52.084;5.224;2022-11-20T06:01:03;41.9;;;33.0;;
33912;SDS011;20200;52.084;5.224;2022-11-20T06:02:41;45.4;;;35.31;;
33912;SDS011;20200;52.084;5.224;2022-11-20T06:04:17;45.8;;;33.8;;
33912;SDS011;20200;52.084;5.224;2022-11-20T06:07:30;43.3;;;33.5;;
33912;SDS011;20200;52.084;5.224;2022-11-20T06:09:06;39.81;;;32.21;;
33912;SDS011;20200;52.084;5.224;2022-11-20T06:10:42;37.9;;;29.8;;
33912;SDS011;20200;52.084;5.224;2022-11-20T06:13:54;39.71;;;31.3;;
33912;SDS011;20200;52.084;5.224;2022-11-20T06:15:30;43.6;;;34.21;;
33912;SDS011;20200;52.084;5.224;2022-11-20T06:17:07;41.1;;;32.6;;
33912;SDS011;20200;52.084;5.224;2022-11-20T06:20:20;39.4;;;31.3;;
33912;SDS011;20200;52.084;5.224;2022-11-20T06:21:57;37.0;;;30.2;;
33912;SDS011;20200;52.084;5.224;2022-11-20T06:23:34;42.0;;;33.8;;
33912;SDS011;20200;52.084;5.224;2022-11-20T06:25:12;39.9;;;31.8;;
33912;SDS011;20200;52.084;5.224;2022-11-20T06:28:25;42.7;;;34.4;;
33912;SDS011;20200;52.084;5.224;2022-11-20T06:30:01;42.7;;;34.21;;
33912;SDS011;20200;52.084;5.224;2022-11-20T06:31:39;43.5;;;35.21;;
33912;SDS011;20200;52.084;5.224;2022-11-20T06:34:51;42.7;;;33.6;;
33912;SDS011;20200;52.084;5.224;2022-11-20T06:36:27;43.4;;;34.31;;
33912;SDS011;20200;52.084;5.224;2022-11-20T06:38:03;42.1;;;33.0;;
33912;SDS011;20200;52.084;5.224;2022-11-20T06:41:18;40.5;;;32.4;;
33912;SDS011;20200;52.084;5.224;2022-11-20T06:42:57;39.81;;;31.6;;
33912;SDS011;20200;52.084;5.224;2022-11-20T06:44:33;42.0;;;33.71;;
33912;SDS011;20200;52.084;5.224;2022-11-20T06:46:10;43.9;;;34.1;;
33912;SDS011;20200;52.084;5.224;2022-11-20T06:49:25;39.71;;;32.3;;
33912;SDS011;20200;52.084;5.224;2022-11-20T06:51:02;40.21;;;32.21;;
33912;SDS011;20200;52.084;5.224;2022-11-20T06:52:39;47.5;;;36.9;;
33912;SDS011;20200;52.084;5.224;2022-11-20T06:55:52;43.2;;;34.5;;
33912;SDS011;20200;52.084;5.224;2022-11-20T06:57:32;44.1;;;34.81;;
33912;SDS011;20200;52.084;5.224;2022-11-20T06:59:08;42.6;;;34.21;;
33912;SDS011;20200;52.084;5.224;2022-11-20T07:00:44;43.3;;;34.5;;
33912;SDS011;20200;52.084;5.224;2022-11-20T07:03:57;41.7;;;33.21;;
33912;SDS011;20200;52.084;5.224;2022-11-20T07:05:33;40.5;;;33.0;;
33912;SDS011;20200;52.084;5.224;2022-11-20T07:07:10;44.4;;;33.6;;
33912;SDS011;20200;52.084;5.224;2022-11-20T07:10:23;46.7;;;35.0;;
33912;SDS011;20200;52.084;5.224;2022-11-20T07:12:00;40.81;;;32.71;;
33912;SDS011;20200;52.084;5.224;2022-11-20T07:13:36;43.8;;;34.0;;
33912;SDS011;20200;52.084;5.224;2022-11-20T07:16:48;39.81;;;32.3;;
33912;SDS011;20200;52.084;5.224;2022-11-20T07:18:26;42.4;;;34.4;;
33912;SDS011;20200;52.084;5.224;2022-11-20T07:20:02;47.7;;;36.71;;
33912;SDS011;20200;52.084;5.224;2022-11-20T07:21:38;42.8;;;34.21;;
33912;SDS011;20200;52.084;5.224;2022-11-20T07:24:50;43.9;;;35.21;;
33912;SDS011;20200;52.084;5.224;2022-11-20T07:26:26;42.9;;;34.4;;
33912;SDS011;20200;52.084;5.224;2022-11-20T07:28:03;42.9;;;34.4;;
33912;SDS011;20200;52.084;5.224;2022-11-20T07:31:16;45.7;;;35.4;;
33912;SDS011;20200;52.084;5.224;2022-11-20T07:32:52;44.5;;;34.71;;
33912;SDS011;20200;52.084;5.224;2022-11-20T07:34:30;43.4;;;34.5;;
33912;SDS011;20200;52.084;5.224;2022-11-20T07:37:45;45.3;;;36.31;;
33912;SDS011;20200;52.084;5.224;2022-11-20T07:39:22;44.8;;;35.21;;
33912;SDS011;20200;52.084;5.224;2022-11-20T07:41:01;40.4;;;32.0;;
33912;SDS011;20200;52.084;5.224;2022-11-20T07:42:37;44.9;;;35.21;;
33912;SDS011;20200;52.084;5.224;2022-11-20T07:45:50;44.9;;;36.31;;
33912;SDS011;20200;52.084;5.224;2022-11-20T07:47:28;47.3;;;36.5;;
33912;SDS011;20200;52.084;5.224;2022-11-20T07:49:04;47.4;;;37.1;;
33912;SDS011;20200;52.084;5.224;2022-11-20T07:52:17;46.4;;;36.1;;
33912;SDS011;20200;52.084;5.224;2022-11-20T07:53:53;53.3;;;38.4;;
33912;SDS011;20200;52.084;5.224;2022-11-20T07:55:29;44.8;;;34.9;;
33912;SDS011;20200;52.084;5.224;2022-11-20T07:58:43;52.5;;;38.6;;
33912;SDS011;20200;52.084;5.224;2022-11-20T08:00:19;46.2;;;36.0;;
33912;SDS011;20200;52.084;5.224;2022-11-20T08:01:55;47.8;;;36.5;;
33912;SDS011;20200;52.084;5.224;2022-11-20T08:03:32;48.7;;;37.31;;
33912;SDS011;20200;52.084;5.224;2022-11-20T08:06:46;47.6;;;36.31;;
33912;SDS011;20200;52.084;5.224;2022-11-20T08:08:22;50.2;;;37.5;;
33912;SDS011;20200;52.084;5.224;2022-11-20T08:09:59;50.7;;;39.1;;
33912;SDS011;20200;52.084;5.224;2022-11-20T08:15:47;53.2;;;38.31;;
33912;SDS011;20200;52.084;5.224;2022-11-20T08:17:25;48.7;;;37.9;;
33912;SDS011;20200;52.084;5.224;2022-11-20T08:19:01;53.2;;;40.71;;
33912;SDS011;20200;52.084;5.224;2022-11-20T08:20:37;52.8;;;41.2;;
33912;SDS011;20200;52.084;5.224;2022-11-20T08:23:51;58.8;;;43.2;;
33912;SDS011;20200;52.084;5.224;2022-11-20T08:25:28;56.7;;;42.2;;
33912;SDS011;20200;52.084;5.224;2022-11-20T08:27:05;52.3;;;40.1;;
33912;SDS011;20200;52.084;5.224;2022-11-20T08:28:41;54.7;;;43.0;;
33912;SDS011;20200;52.084;5.224;2022-11-20T08:31:54;60.9;;;46.0;;
33912;SDS011;20200;52.084;5.224;2022-11-20T08:33:32;61.7;;;46.1;;
33912;SDS011;20200;52.084;5.224;2022-11-20T08:35:08;63.2;;;46.5;;
33912;SDS011;20200;52.084;5.224;2022-11-20T08:38:21;56.1;;;43.8;;
33912;SDS011;20200;52.084;5.224;2022-11-20T08:39:57;58.7;;;44.0;;
33912;SDS011;20200;52.084;5.224;2022-11-20T08:41:33;59.7;;;44.3;;
33912;SDS011;20200;52.084;5.224;2022-11-20T08:44:46;58.0;;;44.3;;
33912;SDS011;20200;52.084;5.224;2022-11-20T08:46:22;57.3;;;43.8;;
33912;SDS011;20200;52.084;5.224;2022-11-20T08:48:01;57.3;;;45.1;;
33912;SDS011;20200;52.084;5.224;2022-11-20T08:49:37;59.1;;;44.1;;
33912;SDS011;20200;52.084;5.224;2022-11-20T08:52:51;59.6;;;45.9;;
33912;SDS011;20200;52.084;5.224;2022-11-20T08:54:27;58.8;;;43.8;;
33912;SDS011;20200;52.084;5.224;2022-11-20T08:56:03;61.2;;;45.3;;
33912;SDS011;20200;52.084;5.224;2022-11-20T08:59:16;60.3;;;46.5;;
33912;SDS011;20200;52.084;5.224;2022-11-20T09:00:53;54.5;;;41.6;;
33912;SDS011;20200;52.084;5.224;2022-11-20T09:02:30;63.0;;;46.6;;
33912;SDS011;20200;52.084;5.224;2022-11-20T09:05:42;64.91;;;48.3;;
33912;SDS011;20200;52.084;5.224;2022-11-20T09:07:19;70.61;;;47.7;;
33912;SDS011;20200;52.084;5.224;2022-11-20T09:08:55;63.2;;;47.4;;
33912;SDS011;20200;52.084;5.224;2022-11-20T09:10:32;63.0;;;48.2;;
33912;SDS011;20200;52.084;5.224;2022-11-20T09:13:44;55.4;;;44.1;;
33912;SDS011;20200;52.084;5.224;2022-11-20T09:15:21;62.8;;;46.9;;
33912;SDS011;20200;52.084;5.224;2022-11-20T09:16:59;58.1;;;44.5;;
33912;SDS011;20200;52.084;5.224;2022-11-20T09:20:13;56.1;;;44.2;;
33912;SDS011;20200;52.084;5.224;2022-11-20T09:21:50;60.1;;;45.5;;
33912;SDS011;20200;52.084;5.224;2022-11-20T09:23:27;60.7;;;45.6;;
33912;SDS011;20200;52.084;5.224;2022-11-20T09:25:08;59.8;;;45.5;;
33912;SDS011;20200;52.084;5.224;2022-11-20T09:28:21;58.6;;;46.5;;
33912;SDS011;20200;52.084;5.224;2022-11-20T09:29:57;59.2;;;45.6;;
33912;SDS011;20200;52.084;5.224;2022-11-20T09:31:33;59.0;;;45.8;;
33912;SDS011;20200;52.084;5.224;2022-11-20T09:34:45;56.8;;;44.5;;
33912;SDS011;20200;52.084;5.224;2022-11-20T09:36:21;59.2;;;46.1;;
33912;SDS011;20200;52.084;5.224;2022-11-20T09:37:58;58.8;;;46.6;;
33912;SDS011;20200;52.084;5.224;2022-11-20T09:41:20;60.2;;;46.4;;
33912;SDS011;20200;52.084;5.224;2022-11-20T09:43:22;55.4;;;44.2;;
